createdAt,value
2022-08-28T00:00:10.432Z,19.75
2022-08-28T00:02:38.028Z,19.57
2022-08-28T00:05:07.105Z,19.59
2022-08-28T00:07:34.621Z,19.63
2022-08-28T00:10:04.666Z,19.53
2022-08-28T00:12:32.239Z,19.65
2022-08-28T00:14:59.660Z,19.54
2022-08-28T00:17:27.142Z,19.42
2022-08-28T00:19:54.569Z,19.31
2022-08-28T00:22:22.003Z,19.30
2022-08-28T00:24:49.393Z,19.23
2022-08-28T00:27:36.153Z,19.25
2022-08-28T00:30:04.473Z,19.27
2022-08-28T00:32:32.401Z,19.26
2022-08-28T00:35:01.637Z,19.18
2022-08-28T00:37:29.339Z,19.17
2022-08-28T00:39:56.805Z,19.14
2022-08-28T00:42:25.612Z,19.15
2022-08-28T00:44:52.996Z,19.15
2022-08-28T00:47:20.401Z,19.00
2022-08-28T00:49:52.429Z,19.02
2022-08-28T00:52:20.240Z,19.03
2022-08-28T00:54:59.217Z,18.99
2022-08-28T00:57:31.634Z,19.06
2022-08-28T00:59:59.440Z,19.00
2022-08-28T01:02:27.555Z,19.00
2022-08-28T01:04:55.999Z,19.20
2022-08-28T01:07:23.840Z,19.12
2022-08-28T01:09:54.431Z,19.06
2022-08-28T01:12:25.031Z,19.03
2022-08-28T01:14:59.999Z,19.13
2022-08-28T01:17:31.192Z,18.97
2022-08-28T01:20:02.958Z,19.11
2022-08-28T01:22:37.217Z,19.09
2022-08-28T01:25:07.497Z,19.09
2022-08-28T01:27:35.504Z,18.92
2022-08-28T01:30:03.248Z,18.83
2022-08-28T01:32:34.597Z,18.86
2022-08-28T01:35:02.999Z,18.85
2022-08-28T01:37:31.550Z,18.88
2022-08-28T01:40:01.125Z,18.87
2022-08-28T01:42:29.929Z,19.02
2022-08-28T01:44:57.933Z,18.92
2022-08-28T01:47:25.358Z,18.83
2022-08-28T01:49:52.764Z,18.91
2022-08-28T01:52:20.152Z,18.91
2022-08-28T01:54:53.823Z,18.77
2022-08-28T01:57:21.250Z,18.78
2022-08-28T01:59:51.832Z,18.64
2022-08-28T02:02:19.249Z,18.62
2022-08-28T02:04:48.380Z,18.73
2022-08-28T02:07:16.960Z,18.72
2022-08-28T02:09:44.761Z,18.72
2022-08-28T02:12:12.153Z,18.77
2022-08-28T02:14:39.555Z,18.85
2022-08-28T02:17:08.261Z,18.85
2022-08-28T02:19:35.817Z,18.92
2022-08-28T02:22:06.036Z,18.70
2022-08-28T02:24:33.429Z,18.82
2022-08-28T02:27:02.147Z,18.73
2022-08-28T02:29:29.774Z,18.59
2022-08-28T02:31:57.296Z,18.48
2022-08-28T02:34:26.024Z,18.64
2022-08-28T02:36:53.449Z,18.63
2022-08-28T02:39:20.840Z,18.65
2022-08-28T02:41:48.508Z,18.63
2022-08-28T02:44:17.283Z,18.55
2022-08-28T02:46:44.733Z,18.64
2022-08-28T02:49:12.122Z,18.74
2022-08-28T02:51:40.920Z,18.64
2022-08-28T02:54:08.304Z,18.59
2022-08-28T02:56:35.832Z,18.63
2022-08-28T02:59:03.232Z,18.59
2022-08-28T03:01:30.693Z,18.66
2022-08-28T03:03:58.193Z,18.71
2022-08-28T03:06:25.607Z,18.74
2022-08-28T03:08:54.318Z,18.69
2022-08-28T03:11:22.885Z,18.66
2022-08-28T03:13:50.401Z,18.65
2022-08-28T03:16:17.940Z,18.52
2022-08-28T03:18:45.412Z,18.70
2022-08-28T03:21:12.897Z,18.56
2022-08-28T03:23:40.973Z,18.61
2022-08-28T03:26:11.610Z,18.54
2022-08-28T03:28:41.889Z,18.59
2022-08-28T03:31:10.693Z,18.45
2022-08-28T03:33:42.560Z,18.48
2022-08-28T03:36:10.681Z,18.37
2022-08-28T03:38:38.347Z,18.43
2022-08-28T03:41:12.448Z,18.55
2022-08-28T03:43:40.441Z,18.56
2022-08-28T03:46:08.929Z,18.50
2022-08-28T03:48:38.339Z,18.58
2022-08-28T03:51:10.738Z,18.41
2022-08-28T03:53:38.671Z,18.38
2022-08-28T03:56:08.710Z,18.58
2022-08-28T03:58:37.885Z,18.59
2022-08-28T04:01:05.382Z,18.43
2022-08-28T04:03:32.939Z,18.36
2022-08-28T04:06:00.687Z,18.31
2022-08-28T04:08:29.382Z,18.40
2022-08-28T04:10:57.510Z,18.33
2022-08-28T04:13:24.963Z,18.31
2022-08-28T04:16:00.980Z,18.19
2022-08-28T04:18:29.405Z,18.36
2022-08-28T04:21:01.179Z,18.17
2022-08-28T04:23:28.711Z,18.29
2022-08-28T04:25:56.338Z,18.35
2022-08-28T04:28:24.205Z,18.31
2022-08-28T04:30:54.406Z,18.23
2022-08-28T04:33:23.288Z,18.28
2022-08-28T04:35:50.728Z,18.38
2022-08-28T04:38:18.619Z,18.45
2022-08-28T04:40:46.195Z,18.38
2022-08-28T04:43:13.720Z,18.34
2022-08-28T04:45:41.902Z,18.20
2022-08-28T04:48:13.002Z,18.23
2022-08-28T04:50:43.808Z,18.20
2022-08-28T04:53:11.403Z,18.16
2022-08-28T04:55:53.748Z,18.18
2022-08-28T04:58:22.816Z,18.17
2022-08-28T05:00:53.976Z,18.04
2022-08-28T05:03:21.729Z,18.07
2022-08-28T05:05:54.314Z,17.95
2022-08-28T05:08:23.935Z,18.01
2022-08-28T05:10:52.169Z,18.13
2022-08-28T05:13:20.604Z,18.04
2022-08-28T05:15:50.587Z,17.97
2022-08-28T05:18:20.396Z,18.11
2022-08-28T05:20:50.302Z,18.00
2022-08-28T05:23:17.793Z,18.06
2022-08-28T05:25:47.505Z,18.24
2022-08-28T05:28:16.762Z,18.09
2022-08-28T05:30:45.189Z,18.06
2022-08-28T05:33:14.661Z,17.88
2022-08-28T05:35:44.300Z,17.95
2022-08-28T05:38:15.142Z,18.08
2022-08-28T05:40:44.315Z,17.96
2022-08-28T05:43:13.427Z,17.83
2022-08-28T05:45:41.147Z,17.88
2022-08-28T05:48:09.290Z,17.68
2022-08-28T05:50:38.955Z,17.69
2022-08-28T05:53:09.205Z,17.73
2022-08-28T05:55:40.805Z,17.77
2022-08-28T05:58:22.227Z,17.57
2022-08-28T06:00:49.633Z,17.50
2022-08-28T06:03:17.092Z,17.54
2022-08-28T06:05:44.467Z,17.71
2022-08-28T06:08:11.963Z,17.58
2022-08-28T06:10:45.841Z,17.62
2022-08-28T06:13:15.286Z,17.65
2022-08-28T06:15:43.747Z,17.57
2022-08-28T06:18:12.477Z,17.77
2022-08-28T06:20:42.144Z,17.73
2022-08-28T06:23:10.473Z,17.62
2022-08-28T06:25:39.969Z,17.71
2022-08-28T06:28:08.790Z,17.85
2022-08-28T06:30:40.012Z,17.87
2022-08-28T06:33:09.568Z,18.09
2022-08-28T06:35:41.447Z,18.11
2022-08-28T06:38:09.280Z,17.98
2022-08-28T06:40:40.294Z,18.01
2022-08-28T06:43:09.368Z,18.10
2022-08-28T06:45:41.080Z,18.09
2022-08-28T06:48:09.327Z,18.05
2022-08-28T06:50:40.812Z,18.06
2022-08-28T06:53:08.892Z,18.36
2022-08-28T06:55:36.764Z,18.15
2022-08-28T06:58:05.557Z,18.28
2022-08-28T07:00:35.401Z,18.43
2022-08-28T07:03:04.761Z,18.50
2022-08-28T07:05:32.906Z,18.36
2022-08-28T07:08:00.788Z,18.12
2022-08-28T07:10:31.189Z,17.91
2022-08-28T07:13:00.305Z,18.25
2022-08-28T07:15:27.879Z,18.06
2022-08-28T07:17:56.843Z,18.03
2022-08-28T07:20:24.270Z,18.27
2022-08-28T07:22:54.130Z,18.08
2022-08-28T07:25:27.257Z,18.07
2022-08-28T07:27:54.654Z,18.10
2022-08-28T07:30:22.193Z,18.08
2022-08-28T07:32:49.844Z,17.97
2022-08-28T07:35:19.090Z,18.00
2022-08-28T07:37:46.635Z,18.24
2022-08-28T07:40:14.232Z,18.44
2022-08-28T07:42:59.493Z,18.27
2022-08-28T07:45:29.890Z,18.41
2022-08-28T07:47:57.545Z,18.59
2022-08-28T07:50:26.276Z,18.55
2022-08-28T07:52:53.656Z,18.52
2022-08-28T07:55:21.054Z,18.91
2022-08-28T07:57:49.861Z,18.89
2022-08-28T08:00:19.281Z,19.02
2022-08-28T08:02:46.753Z,18.88
2022-08-28T08:05:14.517Z,18.76
2022-08-28T08:07:43.882Z,18.67
2022-08-28T08:10:14.868Z,18.70
2022-08-28T08:12:48.021Z,18.78
2022-08-28T08:15:15.619Z,18.87
2022-08-28T08:17:45.032Z,18.96
2022-08-28T08:20:12.750Z,19.09
2022-08-28T08:22:40.244Z,19.53
2022-08-28T08:25:10.129Z,19.63
2022-08-28T08:27:42.346Z,19.77
2022-08-28T08:30:12.259Z,19.69
2022-08-28T08:32:40.155Z,19.78
2022-08-28T08:35:08.131Z,19.71
2022-08-28T08:37:35.515Z,19.73
2022-08-28T08:40:04.076Z,19.85
2022-08-28T08:42:37.803Z,19.97
2022-08-28T08:45:11.100Z,20.33
2022-08-28T08:47:43.648Z,20.50
2022-08-28T08:50:25.303Z,20.45
2022-08-28T08:53:08.348Z,20.22
2022-08-28T08:55:37.917Z,20.37
2022-08-28T08:58:11.514Z,20.34
2022-08-28T09:00:53.365Z,20.17
2022-08-28T09:03:25.081Z,20.31
2022-08-28T09:05:56.940Z,20.53
2022-08-28T09:08:32.715Z,20.74
2022-08-28T09:11:04.338Z,20.77
2022-08-28T09:13:45.564Z,20.77
2022-08-28T09:16:21.789Z,20.45
2022-08-28T09:18:50.676Z,20.57
2022-08-28T09:21:29.290Z,20.69
2022-08-28T09:24:01.007Z,20.68
2022-08-28T09:26:33.080Z,20.44
2022-08-28T09:29:05.767Z,20.50
2022-08-28T09:31:36.613Z,20.64
2022-08-28T09:34:22.778Z,20.49
2022-08-28T09:36:51.280Z,20.76
2022-08-28T09:39:21.244Z,20.97
2022-08-28T09:42:11.700Z,20.94
2022-08-28T09:45:00.319Z,20.87
2022-08-28T09:47:46.818Z,20.95
2022-08-28T09:50:33.841Z,20.90
2022-08-28T09:53:17.051Z,21.16
2022-08-28T09:55:55.070Z,21.14
2022-08-28T09:58:24.280Z,21.41
2022-08-28T10:00:59.877Z,21.22
2022-08-28T10:03:34.133Z,21.08
2022-08-28T10:06:09.464Z,21.54
2022-08-28T10:08:54.964Z,21.68
2022-08-28T10:11:30.118Z,21.99
2022-08-28T10:14:08.236Z,22.03
2022-08-28T10:16:47.031Z,22.17
2022-08-28T10:19:28.107Z,22.13
2022-08-28T10:22:07.531Z,21.65
2022-08-28T10:24:52.008Z,21.77
2022-08-28T10:27:35.934Z,22.38
2022-08-28T10:30:12.375Z,22.27
2022-08-28T10:33:12.725Z,22.79
2022-08-28T10:35:49.571Z,22.70
2022-08-28T10:38:21.499Z,22.82
2022-08-28T10:40:56.620Z,22.88
2022-08-28T10:43:30.821Z,22.55
2022-08-28T10:46:00.693Z,22.50
2022-08-28T10:48:36.534Z,22.83
2022-08-28T10:51:07.023Z,22.89
2022-08-28T10:53:40.471Z,23.11
2022-08-28T10:56:11.232Z,23.01
2022-08-28T10:58:41.585Z,22.48
2022-08-28T11:01:12.564Z,22.73
2022-08-28T11:03:45.324Z,22.91
2022-08-28T11:06:19.677Z,23.00
2022-08-28T11:08:53.721Z,22.97
2022-08-28T11:11:44.530Z,22.94
2022-08-28T11:14:23.945Z,23.08
2022-08-28T11:16:51.682Z,23.17
2022-08-28T11:20:04.035Z,22.94
2022-08-28T11:22:37.806Z,23.28
2022-08-28T11:25:13.311Z,23.03
2022-08-28T11:27:41.241Z,23.13
2022-08-28T11:30:35.527Z,23.13
2022-08-28T11:33:30.954Z,22.87
2022-08-28T11:35:59.683Z,22.72
2022-08-28T11:39:15.980Z,23.15
2022-08-28T11:42:29.535Z,23.16
2022-08-28T11:44:56.981Z,22.88
2022-08-28T11:47:45.365Z,22.89
2022-08-28T11:50:51.876Z,22.79
2022-08-28T11:53:39.873Z,22.95
2022-08-28T11:56:32.134Z,22.83
2022-08-28T11:59:12.623Z,22.70
2022-08-28T12:01:40.487Z,22.71
2022-08-28T12:04:12.309Z,22.64
2022-08-28T12:06:48.375Z,22.59
2022-08-28T12:09:40.110Z,22.42
2022-08-28T12:12:13.461Z,22.29
2022-08-28T12:15:00.031Z,22.63
2022-08-28T12:17:39.558Z,22.94
2022-08-28T12:20:11.759Z,23.19
2022-08-28T12:22:49.909Z,23.42
2022-08-28T12:25:26.532Z,23.07
2022-08-28T12:27:56.016Z,22.97
2022-08-28T12:30:34.035Z,22.90
2022-08-28T12:33:13.823Z,23.14
2022-08-28T12:35:43.893Z,23.49
2022-08-28T12:38:20.049Z,23.45
2022-08-28T12:40:53.628Z,23.32
2022-08-28T12:43:32.718Z,23.10
2022-08-28T12:46:04.620Z,22.59
2022-08-28T12:48:37.063Z,22.83
2022-08-28T12:51:07.711Z,23.06
2022-08-28T12:53:42.576Z,23.09
2022-08-28T12:56:13.053Z,23.26
2022-08-28T12:58:41.960Z,22.97
2022-08-28T13:01:14.543Z,22.99
2022-08-28T13:03:51.165Z,23.04
2022-08-28T13:06:27.192Z,23.42
2022-08-28T13:09:00.938Z,23.36
2022-08-28T13:11:32.938Z,23.51
2022-08-28T13:14:00.972Z,23.52
2022-08-28T13:16:38.561Z,23.72
2022-08-28T13:19:21.972Z,23.58
2022-08-28T13:21:58.732Z,23.61
2022-08-28T13:24:45.640Z,23.04
2022-08-28T13:27:25.510Z,22.88
2022-08-28T13:30:00.901Z,23.09
2022-08-28T13:32:31.083Z,23.25
2022-08-28T13:35:30.271Z,23.01
2022-08-28T13:37:59.855Z,23.24
2022-08-28T13:43:19.264Z,23.02
2022-08-28T13:45:49.112Z,23.27
2022-08-28T13:48:19.572Z,23.55
2022-08-28T13:50:51.359Z,23.54
2022-08-28T13:53:20.476Z,23.66
2022-08-28T13:55:50.565Z,23.71
2022-08-28T13:58:19.703Z,23.74
2022-08-28T14:00:50.038Z,23.61
2022-08-28T14:03:35.426Z,23.73
2022-08-28T14:06:03.584Z,23.98
2022-08-28T14:08:31.216Z,24.09
2022-08-28T14:10:58.845Z,24.34
2022-08-28T14:13:27.855Z,24.34
2022-08-28T14:15:56.175Z,24.26
2022-08-28T14:18:24.178Z,24.08
2022-08-28T14:20:51.576Z,24.20
2022-08-28T14:23:19.008Z,23.97
2022-08-28T14:25:47.712Z,23.93
2022-08-28T14:28:16.266Z,24.03
2022-08-28T14:30:45.222Z,23.77
2022-08-28T14:33:14.977Z,23.93
2022-08-28T14:35:42.643Z,23.86
2022-08-28T14:38:11.077Z,24.07
2022-08-28T14:40:40.379Z,24.17
2022-08-28T14:43:09.927Z,24.33
2022-08-28T14:45:43.292Z,24.02
2022-08-28T14:48:13.004Z,24.13
2022-08-28T14:50:41.896Z,24.22
2022-08-28T14:53:09.646Z,24.13
2022-08-28T14:55:42.022Z,24.14
2022-08-28T14:58:09.416Z,23.89
2022-08-28T15:00:40.468Z,23.77
2022-08-28T15:03:07.949Z,23.76
2022-08-28T15:05:36.798Z,23.82
2022-08-28T15:08:07.613Z,23.58
2022-08-28T15:10:35.197Z,23.79
2022-08-28T15:13:02.621Z,24.03
2022-08-28T15:15:30.004Z,23.80
2022-08-28T15:17:57.380Z,23.97
2022-08-28T15:20:25.048Z,24.14
2022-08-28T15:22:53.759Z,24.30
2022-08-28T15:25:21.423Z,23.79
2022-08-28T15:27:48.793Z,23.48
2022-08-28T15:30:16.816Z,23.51
2022-08-28T15:32:46.086Z,23.69
2022-08-28T15:35:13.771Z,23.81
2022-08-28T15:37:41.225Z,23.74
2022-08-28T15:40:28.529Z,23.63
2022-08-28T15:42:56.045Z,23.44
2022-08-28T15:45:23.494Z,23.39
2022-08-28T15:47:50.918Z,23.30
2022-08-28T15:50:19.858Z,23.29
2022-08-28T15:52:47.483Z,23.02
2022-08-28T15:55:22.579Z,22.91
2022-08-28T15:57:53.345Z,23.07
2022-08-28T16:00:21.100Z,23.19
2022-08-28T16:02:48.503Z,23.30
2022-08-28T16:05:16.243Z,23.33
2022-08-28T16:07:43.720Z,23.32
2022-08-28T16:10:13.376Z,23.16
2022-08-28T16:12:42.503Z,23.19
2022-08-28T16:15:11.411Z,23.34
2022-08-28T16:17:38.896Z,23.07
2022-08-28T16:20:11.096Z,23.05
2022-08-28T16:22:41.336Z,23.08
2022-08-28T16:25:10.656Z,22.91
2022-08-28T16:27:38.063Z,22.71
2022-08-28T16:30:15.796Z,22.69
2022-08-28T16:32:46.850Z,22.77
2022-08-28T16:35:15.825Z,22.84
2022-08-28T16:37:43.884Z,22.66
2022-08-28T16:40:12.791Z,22.57
2022-08-28T16:42:51.605Z,22.52
2022-08-28T16:45:21.108Z,22.42
2022-08-28T16:47:49.001Z,22.39
2022-08-28T16:50:17.423Z,22.28
2022-08-28T16:52:44.860Z,22.22
2022-08-28T16:55:13.847Z,22.24
2022-08-28T16:57:42.094Z,22.22
2022-08-28T17:00:13.480Z,22.20
2022-08-28T17:02:42.678Z,22.10
2022-08-28T17:05:10.855Z,22.03
2022-08-28T17:07:39.724Z,22.14
2022-08-28T17:10:08.827Z,22.00
2022-08-28T17:12:36.221Z,22.01
2022-08-28T17:15:03.716Z,21.90
2022-08-28T17:17:31.140Z,21.86
2022-08-28T17:20:00.482Z,21.74
2022-08-28T17:22:32.146Z,21.73
2022-08-28T17:25:01.395Z,21.72
2022-08-28T17:27:29.817Z,21.67
2022-08-28T17:29:57.768Z,21.52
2022-08-28T17:32:25.332Z,21.48
2022-08-28T17:34:52.989Z,21.41
2022-08-28T17:37:21.732Z,21.39
2022-08-28T17:39:49.252Z,21.20
2022-08-28T17:42:16.663Z,21.23
2022-08-28T17:44:44.101Z,21.11
2022-08-28T17:47:11.896Z,21.12
2022-08-28T17:49:39.347Z,20.90
2022-08-28T17:52:07.152Z,20.84
2022-08-28T17:54:35.872Z,20.84
2022-08-28T17:57:03.283Z,20.71
2022-08-28T17:59:32.707Z,20.75
2022-08-28T18:02:01.315Z,20.67
2022-08-28T18:04:29.036Z,20.54
2022-08-28T18:06:56.472Z,20.53
2022-08-28T18:09:24.580Z,20.47
2022-08-28T18:11:53.933Z,20.32
2022-08-28T18:14:21.931Z,20.29
2022-08-28T18:16:49.459Z,20.20
2022-08-28T18:19:17.175Z,20.14
2022-08-28T18:21:44.934Z,20.22
2022-08-28T18:24:13.177Z,20.12
2022-08-28T18:26:41.439Z,20.09
2022-08-28T18:29:10.657Z,20.05
2022-08-28T18:31:38.189Z,20.11
2022-08-28T18:34:05.680Z,19.95
2022-08-28T18:36:33.187Z,20.18
2022-08-28T18:39:00.747Z,19.96
2022-08-28T18:41:35.757Z,19.87
2022-08-28T18:44:14.120Z,19.79
2022-08-28T18:46:42.555Z,19.76
2022-08-28T18:49:10.421Z,19.77
2022-08-28T18:51:37.916Z,19.66
2022-08-28T18:54:06.197Z,19.70
2022-08-28T18:56:33.924Z,19.64
2022-08-28T18:59:03.711Z,19.50
2022-08-28T19:01:32.797Z,19.49
2022-08-28T19:04:00.292Z,19.47
2022-08-28T19:06:27.771Z,19.46
2022-08-28T19:08:57.893Z,19.40
2022-08-28T19:11:25.664Z,19.30
2022-08-28T19:13:53.179Z,19.32
2022-08-28T19:16:21.408Z,19.17
2022-08-28T19:18:52.173Z,19.14
2022-08-28T19:21:20.772Z,19.06
2022-08-28T19:23:55.910Z,19.10
2022-08-28T19:26:24.468Z,18.90
2022-08-28T19:28:51.896Z,18.87
2022-08-28T19:31:19.463Z,18.82
2022-08-28T19:33:47.965Z,18.78
2022-08-28T19:36:17.243Z,18.68
2022-08-28T19:38:44.687Z,18.53
2022-08-28T19:41:14.151Z,18.42
2022-08-28T19:43:44.240Z,18.40
2022-08-28T19:46:19.675Z,18.42
2022-08-28T19:48:48.335Z,18.39
2022-08-28T19:51:17.599Z,18.35
2022-08-28T19:53:56.788Z,18.43
2022-08-28T19:56:27.706Z,18.38
2022-08-28T19:58:58.303Z,18.36
2022-08-28T20:01:25.918Z,18.16
2022-08-28T20:03:54.712Z,18.15
2022-08-28T20:06:23.755Z,18.15
2022-08-28T20:08:51.938Z,18.23
2022-08-28T20:11:24.816Z,18.07
2022-08-28T20:13:53.060Z,17.97
2022-08-28T20:16:21.418Z,17.95
2022-08-28T20:18:49.727Z,18.06
2022-08-28T20:21:18.645Z,17.91
2022-08-28T20:23:54.762Z,17.85
2022-08-28T20:26:22.252Z,17.68
2022-08-28T20:28:52.497Z,17.67
2022-08-28T20:31:20.777Z,17.65
2022-08-28T20:33:50.914Z,17.50
2022-08-28T20:36:21.157Z,17.52
2022-08-28T20:38:48.907Z,17.49
2022-08-28T20:41:20.700Z,17.34
2022-08-28T20:43:48.670Z,17.36
2022-08-28T21:00:48.604Z,17.24
2022-08-28T21:03:21.016Z,17.13
2022-08-28T21:05:55.109Z,17.18
2022-08-28T21:08:22.483Z,17.08
2022-08-28T21:10:52.758Z,17.13
2022-08-28T21:13:20.489Z,17.05
2022-08-28T21:15:49.184Z,17.04
2022-08-28T21:18:16.610Z,17.03
2022-08-28T21:20:44.727Z,17.01
2022-08-28T21:23:12.253Z,16.90
2022-08-28T21:25:41.813Z,16.89
2022-08-28T21:28:09.690Z,16.87
2022-08-28T21:30:37.406Z,16.93
2022-08-28T21:33:06.225Z,16.88
2022-08-28T21:35:33.678Z,16.51
2022-08-28T21:38:01.157Z,16.34
2022-08-28T21:40:28.607Z,16.48
2022-08-28T21:42:56.022Z,16.67
2022-08-28T21:45:23.438Z,16.69
2022-08-28T21:47:50.892Z,16.55
2022-08-28T21:50:20.640Z,16.60
2022-08-28T21:52:48.036Z,16.40
2022-08-28T21:55:17.388Z,16.62
2022-08-28T21:57:45.632Z,16.34
2022-08-28T22:00:18.830Z,16.53
2022-08-28T22:02:46.341Z,16.33
2022-08-28T22:05:14.200Z,16.42
2022-08-28T22:07:44.947Z,16.35
2022-08-28T22:10:12.946Z,16.44
2022-08-28T22:12:40.367Z,16.55
2022-08-28T22:15:08.880Z,16.42
2022-08-28T22:17:36.486Z,16.31
2022-08-28T22:20:04.835Z,16.23
2022-08-28T22:22:49.865Z,16.03
2022-08-28T22:25:18.927Z,16.16
2022-08-28T22:27:46.345Z,16.19
2022-08-28T22:30:14.129Z,16.07
2022-08-28T22:32:41.521Z,16.27
2022-08-28T22:35:10.499Z,16.16
2022-08-28T22:37:37.915Z,16.28
2022-08-28T22:40:09.637Z,15.90
2022-08-28T22:42:42.656Z,16.03
2022-08-28T22:45:11.020Z,16.13
2022-08-28T22:47:39.543Z,15.94
2022-08-28T22:50:08.456Z,15.91
2022-08-28T22:52:37.143Z,15.92
2022-08-28T22:55:06.605Z,15.91
2022-08-28T22:57:34.116Z,15.88
2022-08-28T23:00:04.503Z,15.99
2022-08-28T23:02:32.233Z,15.90
2022-08-28T23:04:59.610Z,16.06
2022-08-28T23:07:27.090Z,15.97
2022-08-28T23:09:54.481Z,15.88
2022-08-28T23:12:21.903Z,15.82
2022-08-28T23:14:49.641Z,15.86
2022-08-28T23:17:18.816Z,15.73
2022-08-28T23:19:48.130Z,15.74
2022-08-28T23:22:16.418Z,15.89
2022-08-28T23:24:46.147Z,15.67
2022-08-28T23:27:34.955Z,15.75
2022-08-28T23:30:01.373Z,15.69
2022-08-28T23:32:30.092Z,15.80
2022-08-28T23:34:57.732Z,15.59
2022-08-28T23:37:25.148Z,15.70
2022-08-28T23:39:52.523Z,15.66
2022-08-28T23:42:21.948Z,15.59
2022-08-28T23:44:49.641Z,15.36
2022-08-28T23:47:17.030Z,15.52
2022-08-28T23:49:47.030Z,15.40
2022-08-28T23:52:14.503Z,15.55
2022-08-28T23:54:41.906Z,15.47
2022-08-28T23:57:09.304Z,15.46
2022-08-28T23:59:38.601Z,15.62
